sensor_id;sensor_type;location;lat;lon;timestamp;temperature;humidity
43697;DHT22;29301;47.620;19.560;2022-10-17T00:01:01;11.10;99.50
43697;DHT22;29301;47.620;19.560;2022-10-17T00:03:27;11.20;98.90
43697;DHT22;29301;47.620;19.560;2022-10-17T00:05:53;11.10;98.30
43697;DHT22;29301;47.620;19.560;2022-10-17T00:08:19;11.10;98.10
43697;DHT22;29301;47.620;19.560;2022-10-17T00:10:58;11.00;98.00
43697;DHT22;29301;47.620;19.560;2022-10-17T00:13:24;10.90;98.00
43697;DHT22;29301;47.620;19.560;2022-10-17T00:15:49;11.00;98.20
43697;DHT22;29301;47.620;19.560;2022-10-17T00:18:15;11.00;98.10
43697;DHT22;29301;47.620;19.560;2022-10-17T00:20:41;10.90;98.30
43697;DHT22;29301;47.620;19.560;2022-10-17T00:23:06;10.90;98.60
43697;DHT22;29301;47.620;19.560;2022-10-17T00:25:32;10.90;98.70
43697;DHT22;29301;47.620;19.560;2022-10-17T00:27:58;10.90;98.60
43697;DHT22;29301;47.620;19.560;2022-10-17T00:30:23;11.00;98.60
43697;DHT22;29301;47.620;19.560;2022-10-17T00:32:49;10.90;98.60
43697;DHT22;29301;47.620;19.560;2022-10-17T00:35:15;11.00;98.60
43697;DHT22;29301;47.620;19.560;2022-10-17T00:37:40;11.00;98.40
43697;DHT22;29301;47.620;19.560;2022-10-17T00:40:07;11.00;98.20
43697;DHT22;29301;47.620;19.560;2022-10-17T00:42:33;10.90;98.00
43697;DHT22;29301;47.620;19.560;2022-10-17T00:45:24;10.70;98.30
43697;DHT22;29301;47.620;19.560;2022-10-17T00:48:02;10.60;99.20
43697;DHT22;29301;47.620;19.560;2022-10-17T00:50:29;10.50;99.90
43697;DHT22;29301;47.620;19.560;2022-10-17T00:52:58;10.60;99.90
43697;DHT22;29301;47.620;19.560;2022-10-17T00:55:32;10.60;99.80
43697;DHT22;29301;47.620;19.560;2022-10-17T00:58:02;10.70;99.70
43697;DHT22;29301;47.620;19.560;2022-10-17T01:00:29;10.70;99.60
43697;DHT22;29301;47.620;19.560;2022-10-17T01:02:54;10.70;99.20
43697;DHT22;29301;47.620;19.560;2022-10-17T01:05:21;10.70;98.70
43697;DHT22;29301;47.620;19.560;2022-10-17T01:07:48;10.70;98.60
43697;DHT22;29301;47.620;19.560;2022-10-17T01:10:15;10.60;98.60
43697;DHT22;29301;47.620;19.560;2022-10-17T01:20:57;10.60;98.30
43697;DHT22;29301;47.620;19.560;2022-10-17T01:23:59;10.50;98.10
43697;DHT22;29301;47.620;19.560;2022-10-17T01:26:36;10.40;98.80
43697;DHT22;29301;47.620;19.560;2022-10-17T01:34:47;10.30;99.60
43697;DHT22;29301;47.620;19.560;2022-10-17T01:37:19;10.20;99.80
43697;DHT22;29301;47.620;19.560;2022-10-17T01:40:38;10.10;99.90
43697;DHT22;29301;47.620;19.560;2022-10-17T01:43:11;10.10;99.90
43697;DHT22;29301;47.620;19.560;2022-10-17T01:45:38;10.10;99.90
43697;DHT22;29301;47.620;19.560;2022-10-17T01:48:10;10.20;99.90
43697;DHT22;29301;47.620;19.560;2022-10-17T01:50:41;10.20;99.70
43697;DHT22;29301;47.620;19.560;2022-10-17T01:53:13;10.20;98.90
43697;DHT22;29301;47.620;19.560;2022-10-17T01:55:42;10.10;99.10
43697;DHT22;29301;47.620;19.560;2022-10-17T01:58:21;9.90;99.70
43697;DHT22;29301;47.620;19.560;2022-10-17T02:00:49;10.00;99.90
43697;DHT22;29301;47.620;19.560;2022-10-17T02:03:18;10.00;99.90
43697;DHT22;29301;47.620;19.560;2022-10-17T02:05:44;10.00;99.90
43697;DHT22;29301;47.620;19.560;2022-10-17T02:08:11;10.00;99.60
43697;DHT22;29301;47.620;19.560;2022-10-17T02:11:01;9.90;99.40
43697;DHT22;29301;47.620;19.560;2022-10-17T02:27:47;9.80;99.50
43697;DHT22;29301;47.620;19.560;2022-10-17T02:30:19;9.90;99.50
43697;DHT22;29301;47.620;19.560;2022-10-17T02:32:54;9.90;99.50
43697;DHT22;29301;47.620;19.560;2022-10-17T02:35:24;9.80;99.70
43697;DHT22;29301;47.620;19.560;2022-10-17T02:37:52;9.80;99.70
43697;DHT22;29301;47.620;19.560;2022-10-17T02:40:20;9.90;99.60
43697;DHT22;29301;47.620;19.560;2022-10-17T02:42:46;9.90;99.20
43697;DHT22;29301;47.620;19.560;2022-10-17T02:45:14;9.90;99.00
43697;DHT22;29301;47.620;19.560;2022-10-17T02:48:07;9.80;99.00
43697;DHT22;29301;47.620;19.560;2022-10-17T02:53:56;9.70;99.80
43697;DHT22;29301;47.620;19.560;2022-10-17T02:56:29;9.70;99.90
43697;DHT22;29301;47.620;19.560;2022-10-17T02:58:57;9.70;99.70
43697;DHT22;29301;47.620;19.560;2022-10-17T03:01:24;9.60;99.30
43697;DHT22;29301;47.620;19.560;2022-10-17T03:03:50;9.50;99.80
43697;DHT22;29301;47.620;19.560;2022-10-17T03:06:16;9.50;99.90
43697;DHT22;29301;47.620;19.560;2022-10-17T03:08:42;9.50;99.90
43697;DHT22;29301;47.620;19.560;2022-10-17T03:11:07;9.60;99.90
43697;DHT22;29301;47.620;19.560;2022-10-17T03:13:33;9.60;99.90
43697;DHT22;29301;47.620;19.560;2022-10-17T03:15:59;9.70;99.50
43697;DHT22;29301;47.620;19.560;2022-10-17T03:18:25;9.70;98.90
43697;DHT22;29301;47.620;19.560;2022-10-17T03:20:50;9.70;98.70
43697;DHT22;29301;47.620;19.560;2022-10-17T03:23:16;9.70;98.40
43697;DHT22;29301;47.620;19.560;2022-10-17T03:25:42;9.60;98.40
43697;DHT22;29301;47.620;19.560;2022-10-17T03:28:09;9.60;98.60
43697;DHT22;29301;47.620;19.560;2022-10-17T03:30:37;9.70;98.40
43697;DHT22;29301;47.620;19.560;2022-10-17T03:33:03;9.70;98.20
43697;DHT22;29301;47.620;19.560;2022-10-17T03:35:28;9.60;98.10
43697;DHT22;29301;47.620;19.560;2022-10-17T03:37:54;9.60;98.10
43697;DHT22;29301;47.620;19.560;2022-10-17T03:40:20;9.60;98.30
43697;DHT22;29301;47.620;19.560;2022-10-17T03:42:47;9.50;98.20
43697;DHT22;29301;47.620;19.560;2022-10-17T03:45:12;9.60;98.10
43697;DHT22;29301;47.620;19.560;2022-10-17T03:47:38;9.50;97.80
43697;DHT22;29301;47.620;19.560;2022-10-17T03:50:04;9.50;97.80
43697;DHT22;29301;47.620;19.560;2022-10-17T03:52:30;9.50;98.10
43697;DHT22;29301;47.620;19.560;2022-10-17T03:54:55;9.40;98.30
43697;DHT22;29301;47.620;19.560;2022-10-17T03:57:21;9.30;98.40
43697;DHT22;29301;47.620;19.560;2022-10-17T03:59:48;9.30;98.60
43697;DHT22;29301;47.620;19.560;2022-10-17T04:02:14;9.20;99.10
43697;DHT22;29301;47.620;19.560;2022-10-17T04:04:40;9.20;99.40
43697;DHT22;29301;47.620;19.560;2022-10-17T04:07:05;9.20;99.50
43697;DHT22;29301;47.620;19.560;2022-10-17T04:09:31;9.10;99.50
43697;DHT22;29301;47.620;19.560;2022-10-17T04:11:56;9.00;99.90
43697;DHT22;29301;47.620;19.560;2022-10-17T04:14:22;9.00;99.90
43697;DHT22;29301;47.620;19.560;2022-10-17T04:16:48;8.90;99.90
43697;DHT22;29301;47.620;19.560;2022-10-17T04:19:14;8.90;99.90
43697;DHT22;29301;47.620;19.560;2022-10-17T04:21:39;8.90;99.90
43697;DHT22;29301;47.620;19.560;2022-10-17T04:24:05;9.00;99.90
43697;DHT22;29301;47.620;19.560;2022-10-17T04:26:31;9.00;99.90
43697;DHT22;29301;47.620;19.560;2022-10-17T04:28:56;9.00;99.90
43697;DHT22;29301;47.620;19.560;2022-10-17T04:31:22;9.10;99.90
43697;DHT22;29301;47.620;19.560;2022-10-17T04:33:49;9.00;99.90
43697;DHT22;29301;47.620;19.560;2022-10-17T04:36:18;9.00;99.90
43697;DHT22;29301;47.620;19.560;2022-10-17T04:38:44;9.00;99.90
43697;DHT22;29301;47.620;19.560;2022-10-17T04:41:13;9.10;99.90
43697;DHT22;29301;47.620;19.560;2022-10-17T04:43:40;9.10;99.90
43697;DHT22;29301;47.620;19.560;2022-10-17T04:46:11;9.20;99.90
43697;DHT22;29301;47.620;19.560;2022-10-17T04:48:38;9.10;99.90
43697;DHT22;29301;47.620;19.560;2022-10-17T04:51:07;9.00;99.90
43697;DHT22;29301;47.620;19.560;2022-10-17T04:53:34;9.00;99.90
43697;DHT22;29301;47.620;19.560;2022-10-17T04:56:00;9.10;99.90
43697;DHT22;29301;47.620;19.560;2022-10-17T04:58:29;9.10;99.90
43697;DHT22;29301;47.620;19.560;2022-10-17T05:00:55;9.00;99.90
43697;DHT22;29301;47.620;19.560;2022-10-17T05:03:21;8.90;99.90
43697;DHT22;29301;47.620;19.560;2022-10-17T05:05:46;9.00;99.90
43697;DHT22;29301;47.620;19.560;2022-10-17T05:08:12;9.00;99.90
43697;DHT22;29301;47.620;19.560;2022-10-17T05:10:42;9.00;99.90
43697;DHT22;29301;47.620;19.560;2022-10-17T05:13:09;9.00;99.90
43697;DHT22;29301;47.620;19.560;2022-10-17T05:15:35;9.00;99.90
43697;DHT22;29301;47.620;19.560;2022-10-17T05:18:01;9.10;99.90
43697;DHT22;29301;47.620;19.560;2022-10-17T05:20:27;9.10;99.90
43697;DHT22;29301;47.620;19.560;2022-10-17T05:22:53;9.00;99.90
43697;DHT22;29301;47.620;19.560;2022-10-17T05:25:19;9.10;99.90
43697;DHT22;29301;47.620;19.560;2022-10-17T05:27:45;9.00;99.90
43697;DHT22;29301;47.620;19.560;2022-10-17T05:30:11;9.00;99.90
43697;DHT22;29301;47.620;19.560;2022-10-17T05:32:37;9.00;99.90
43697;DHT22;29301;47.620;19.560;2022-10-17T05:35:03;9.10;99.90
43697;DHT22;29301;47.620;19.560;2022-10-17T05:37:30;9.10;99.90
43697;DHT22;29301;47.620;19.560;2022-10-17T05:39:56;9.10;99.90
43697;DHT22;29301;47.620;19.560;2022-10-17T05:42:22;9.10;99.90
43697;DHT22;29301;47.620;19.560;2022-10-17T05:44:48;9.00;99.90
43697;DHT22;29301;47.620;19.560;2022-10-17T05:47:14;9.00;99.90
43697;DHT22;29301;47.620;19.560;2022-10-17T05:49:39;9.00;99.90
43697;DHT22;29301;47.620;19.560;2022-10-17T05:52:05;9.10;99.90
43697;DHT22;29301;47.620;19.560;2022-10-17T05:54:31;9.10;99.90
43697;DHT22;29301;47.620;19.560;2022-10-17T05:56:57;9.10;99.90
43697;DHT22;29301;47.620;19.560;2022-10-17T05:59:24;9.20;99.90
43697;DHT22;29301;47.620;19.560;2022-10-17T06:01:50;9.20;99.90
43697;DHT22;29301;47.620;19.560;2022-10-17T06:04:16;9.20;99.90
43697;DHT22;29301;47.620;19.560;2022-10-17T06:06:42;9.30;99.90
43697;DHT22;29301;47.620;19.560;2022-10-17T06:09:08;9.30;99.90
43697;DHT22;29301;47.620;19.560;2022-10-17T06:11:34;9.30;99.90
43697;DHT22;29301;47.620;19.560;2022-10-17T06:14:00;9.30;99.90
43697;DHT22;29301;47.620;19.560;2022-10-17T06:16:26;9.40;99.90
43697;DHT22;29301;47.620;19.560;2022-10-17T06:18:52;9.40;99.90
43697;DHT22;29301;47.620;19.560;2022-10-17T06:21:21;9.50;99.90
43697;DHT22;29301;47.620;19.560;2022-10-17T06:23:47;9.70;99.90
43697;DHT22;29301;47.620;19.560;2022-10-17T06:26:12;9.80;99.90
43697;DHT22;29301;47.620;19.560;2022-10-17T06:28:38;9.80;99.90
43697;DHT22;29301;47.620;19.560;2022-10-17T06:31:12;9.80;99.90
43697;DHT22;29301;47.620;19.560;2022-10-17T06:33:38;9.90;99.90
43697;DHT22;29301;47.620;19.560;2022-10-17T06:36:05;10.00;99.90
43697;DHT22;29301;47.620;19.560;2022-10-17T06:38:32;10.10;99.90
43697;DHT22;29301;47.620;19.560;2022-10-17T06:41:09;10.20;99.90
43697;DHT22;29301;47.620;19.560;2022-10-17T06:43:38;10.40;99.90
43697;DHT22;29301;47.620;19.560;2022-10-17T06:46:04;10.70;99.90
43697;DHT22;29301;47.620;19.560;2022-10-17T06:48:30;10.80;99.90
43697;DHT22;29301;47.620;19.560;2022-10-17T06:51:04;11.00;99.90
43697;DHT22;29301;47.620;19.560;2022-10-17T06:53:32;11.20;99.90
43697;DHT22;29301;47.620;19.560;2022-10-17T06:55:58;11.30;99.90
43697;DHT22;29301;47.620;19.560;2022-10-17T06:58:32;11.50;99.90
43697;DHT22;29301;47.620;19.560;2022-10-17T07:00:59;11.70;99.90
43697;DHT22;29301;47.620;19.560;2022-10-17T07:03:25;11.90;99.90
43697;DHT22;29301;47.620;19.560;2022-10-17T07:05:52;12.10;99.90
43697;DHT22;29301;47.620;19.560;2022-10-17T07:08:18;12.30;99.90
43697;DHT22;29301;47.620;19.560;2022-10-17T07:10:44;12.50;99.90
43697;DHT22;29301;47.620;19.560;2022-10-17T07:13:09;12.60;99.90
43697;DHT22;29301;47.620;19.560;2022-10-17T07:15:36;12.80;99.30
43697;DHT22;29301;47.620;19.560;2022-10-17T07:18:02;13.00;98.90
43697;DHT22;29301;47.620;19.560;2022-10-17T07:20:28;13.20;98.70
43697;DHT22;29301;47.620;19.560;2022-10-17T07:22:53;13.40;97.80
43697;DHT22;29301;47.620;19.560;2022-10-17T07:25:19;13.50;97.80
43697;DHT22;29301;47.620;19.560;2022-10-17T07:27:44;13.70;97.40
43697;DHT22;29301;47.620;19.560;2022-10-17T07:30:10;13.90;96.70
43697;DHT22;29301;47.620;19.560;2022-10-17T07:32:36;14.00;95.80
43697;DHT22;29301;47.620;19.560;2022-10-17T07:35:02;14.00;95.20
43697;DHT22;29301;47.620;19.560;2022-10-17T07:37:28;14.00;95.20
43697;DHT22;29301;47.620;19.560;2022-10-17T07:39:54;14.00;95.60
43697;DHT22;29301;47.620;19.560;2022-10-17T07:42:21;14.20;95.30
43697;DHT22;29301;47.620;19.560;2022-10-17T07:44:46;14.20;95.10
43697;DHT22;29301;47.620;19.560;2022-10-17T07:47:12;14.40;94.90
43697;DHT22;29301;47.620;19.560;2022-10-17T07:49:38;14.60;95.30
43697;DHT22;29301;47.620;19.560;2022-10-17T07:52:09;15.00;95.00
43697;DHT22;29301;47.620;19.560;2022-10-17T07:54:35;15.20;93.20
43697;DHT22;29301;47.620;19.560;2022-10-17T07:57:01;15.40;92.40
43697;DHT22;29301;47.620;19.560;2022-10-17T07:59:26;15.50;92.40
43697;DHT22;29301;47.620;19.560;2022-10-17T08:01:55;15.70;91.30
43697;DHT22;29301;47.620;19.560;2022-10-17T08:04:20;16.00;90.50
43697;DHT22;29301;47.620;19.560;2022-10-17T08:06:46;16.10;89.50
43697;DHT22;29301;47.620;19.560;2022-10-17T08:09:12;16.20;87.90
43697;DHT22;29301;47.620;19.560;2022-10-17T08:11:37;16.40;85.90
43697;DHT22;29301;47.620;19.560;2022-10-17T08:14:03;16.40;86.30
43697;DHT22;29301;47.620;19.560;2022-10-17T08:16:29;16.60;86.70
43697;DHT22;29301;47.620;19.560;2022-10-17T08:18:55;17.00;84.40
43697;DHT22;29301;47.620;19.560;2022-10-17T08:21:21;17.20;80.70
43697;DHT22;29301;47.620;19.560;2022-10-17T08:23:47;17.10;80.00
43697;DHT22;29301;47.620;19.560;2022-10-17T08:26:12;17.00;78.70
43697;DHT22;29301;47.620;19.560;2022-10-17T08:28:41;17.10;77.50
43697;DHT22;29301;47.620;19.560;2022-10-17T08:31:12;17.00;75.50
43697;DHT22;29301;47.620;19.560;2022-10-17T08:33:39;16.80;76.90
43697;DHT22;29301;47.620;19.560;2022-10-17T08:36:06;17.00;78.30
43697;DHT22;29301;47.620;19.560;2022-10-17T08:38:32;17.30;76.10
43697;DHT22;29301;47.620;19.560;2022-10-17T08:46:35;17.60;71.60
43697;DHT22;29301;47.620;19.560;2022-10-17T08:49:06;17.40;70.50
43697;DHT22;29301;47.620;19.560;2022-10-17T08:51:43;17.90;71.40
43697;DHT22;29301;47.620;19.560;2022-10-17T08:54:50;18.20;70.10
43697;DHT22;29301;47.620;19.560;2022-10-17T08:57:12;18.40;69.90
43697;DHT22;29301;47.620;19.560;2022-10-17T08:59:40;18.80;69.90
43697;DHT22;29301;47.620;19.560;2022-10-17T09:05:33;19.10;68.70
43697;DHT22;29301;47.620;19.560;2022-10-17T09:08:32;19.20;68.00
43697;DHT22;29301;47.620;19.560;2022-10-17T09:16:41;19.50;66.50
43697;DHT22;29301;47.620;19.560;2022-10-17T09:21:46;19.90;65.60
43697;DHT22;29301;47.620;19.560;2022-10-17T09:24:22;19.90;64.80
43697;DHT22;29301;47.620;19.560;2022-10-17T09:26:50;19.80;64.30
43697;DHT22;29301;47.620;19.560;2022-10-17T09:29:26;19.50;64.50
43697;DHT22;29301;47.620;19.560;2022-10-17T09:32:14;19.60;65.00
43697;DHT22;29301;47.620;19.560;2022-10-17T09:34:41;19.30;63.40
43697;DHT22;29301;47.620;19.560;2022-10-17T09:37:12;19.10;63.00
43697;DHT22;29301;47.620;19.560;2022-10-17T09:39:39;19.00;63.80
43697;DHT22;29301;47.620;19.560;2022-10-17T09:42:11;18.80;63.30
43697;DHT22;29301;47.620;19.560;2022-10-17T09:45:02;18.50;63.40
43697;DHT22;29301;47.620;19.560;2022-10-17T09:50:29;19.20;63.80
43697;DHT22;29301;47.620;19.560;2022-10-17T09:52:59;19.20;63.10
43697;DHT22;29301;47.620;19.560;2022-10-17T09:55:39;19.20;63.60
43697;DHT22;29301;47.620;19.560;2022-10-17T09:58:07;19.50;64.10
43697;DHT22;29301;47.620;19.560;2022-10-17T10:00:44;19.70;63.50
43697;DHT22;29301;47.620;19.560;2022-10-17T10:03:24;19.70;62.40
43697;DHT22;29301;47.620;19.560;2022-10-17T10:06:18;19.50;62.30
43697;DHT22;29301;47.620;19.560;2022-10-17T10:08:57;19.60;61.70
43697;DHT22;29301;47.620;19.560;2022-10-17T10:11:48;19.60;61.60
43697;DHT22;29301;47.620;19.560;2022-10-17T10:16:46;19.50;62.90
43697;DHT22;29301;47.620;19.560;2022-10-17T10:19:30;19.50;61.20
43697;DHT22;29301;47.620;19.560;2022-10-17T10:22:20;19.40;61.40
43697;DHT22;29301;47.620;19.560;2022-10-17T10:24:44;19.50;61.50
43697;DHT22;29301;47.620;19.560;2022-10-17T10:27:15;19.70;62.30
43697;DHT22;29301;47.620;19.560;2022-10-17T10:29:48;20.00;62.10
43697;DHT22;29301;47.620;19.560;2022-10-17T10:34:59;20.20;61.40
43697;DHT22;29301;47.620;19.560;2022-10-17T10:37:40;20.30;61.20
43697;DHT22;29301;47.620;19.560;2022-10-17T10:40:18;20.40;60.80
43697;DHT22;29301;47.620;19.560;2022-10-17T10:42:53;20.50;60.40
43697;DHT22;29301;47.620;19.560;2022-10-17T10:45:20;20.30;60.40
43697;DHT22;29301;47.620;19.560;2022-10-17T10:47:57;20.10;60.20
43697;DHT22;29301;47.620;19.560;2022-10-17T10:50:44;20.10;60.70
43697;DHT22;29301;47.620;19.560;2022-10-17T10:53:31;20.00;60.70
43697;DHT22;29301;47.620;19.560;2022-10-17T10:59:03;19.80;60.20
43697;DHT22;29301;47.620;19.560;2022-10-17T11:01:47;19.70;59.90
43697;DHT22;29301;47.620;19.560;2022-10-17T11:04:30;19.60;60.80
43697;DHT22;29301;47.620;19.560;2022-10-17T11:12:51;19.60;60.60
43697;DHT22;29301;47.620;19.560;2022-10-17T11:15:32;19.80;60.50
43697;DHT22;29301;47.620;19.560;2022-10-17T11:18:04;19.80;60.60
43697;DHT22;29301;47.620;19.560;2022-10-17T11:20:53;19.70;60.40
43697;DHT22;29301;47.620;19.560;2022-10-17T11:26:07;19.70;60.40
43697;DHT22;29301;47.620;19.560;2022-10-17T11:28:35;19.80;60.40
43697;DHT22;29301;47.620;19.560;2022-10-17T11:31:11;19.90;60.70
43697;DHT22;29301;47.620;19.560;2022-10-17T11:33:48;20.10;60.20
43697;DHT22;29301;47.620;19.560;2022-10-17T11:36:17;20.00;60.10
43697;DHT22;29301;47.620;19.560;2022-10-17T11:38:52;20.10;59.70
43697;DHT22;29301;47.620;19.560;2022-10-17T11:41:26;20.20;59.90
43697;DHT22;29301;47.620;19.560;2022-10-17T11:44:43;20.30;59.80
43697;DHT22;29301;47.620;19.560;2022-10-17T11:46:45;20.10;58.80
43697;DHT22;29301;47.620;19.560;2022-10-17T11:49:37;20.10;59.10
43697;DHT22;29301;47.620;19.560;2022-10-17T11:52:19;20.10;58.90
43697;DHT22;29301;47.620;19.560;2022-10-17T11:54:53;20.20;59.20
43697;DHT22;29301;47.620;19.560;2022-10-17T11:57:39;20.30;58.60
43697;DHT22;29301;47.620;19.560;2022-10-17T12:06:24;20.20;57.50
43697;DHT22;29301;47.620;19.560;2022-10-17T12:11:52;20.30;57.90
43697;DHT22;29301;47.620;19.560;2022-10-17T12:17:20;20.40;57.10
43697;DHT22;29301;47.620;19.560;2022-10-17T12:19:46;20.40;57.40
43697;DHT22;29301;47.620;19.560;2022-10-17T12:22:19;20.50;57.60
43697;DHT22;29301;47.620;19.560;2022-10-17T12:25:00;20.60;57.10
43697;DHT22;29301;47.620;19.560;2022-10-17T12:27:41;20.40;57.10
43697;DHT22;29301;47.620;19.560;2022-10-17T12:32:37;20.40;57.00
43697;DHT22;29301;47.620;19.560;2022-10-17T12:35:03;20.40;57.00
43697;DHT22;29301;47.620;19.560;2022-10-17T12:51:16;20.60;56.70
43697;DHT22;29301;47.620;19.560;2022-10-17T12:53:52;20.60;56.60
43697;DHT22;29301;47.620;19.560;2022-10-17T12:56:36;20.60;56.30
43697;DHT22;29301;47.620;19.560;2022-10-17T12:59:15;20.60;56.30
43697;DHT22;29301;47.620;19.560;2022-10-17T13:01:48;20.60;56.40
43697;DHT22;29301;47.620;19.560;2022-10-17T13:04:15;20.70;56.30
43697;DHT22;29301;47.620;19.560;2022-10-17T13:06:46;20.70;55.80
43697;DHT22;29301;47.620;19.560;2022-10-17T13:11:59;20.70;55.40
43697;DHT22;29301;47.620;19.560;2022-10-17T13:14:26;20.60;55.20
43697;DHT22;29301;47.620;19.560;2022-10-17T13:17:05;20.60;55.20
43697;DHT22;29301;47.620;19.560;2022-10-17T13:19:42;20.70;55.50
43697;DHT22;29301;47.620;19.560;2022-10-17T13:22:26;20.70;55.30
43697;DHT22;29301;47.620;19.560;2022-10-17T13:25:17;20.70;54.90
43697;DHT22;29301;47.620;19.560;2022-10-17T13:27:43;20.80;54.70
43697;DHT22;29301;47.620;19.560;2022-10-17T13:30:30;20.90;54.20
43697;DHT22;29301;47.620;19.560;2022-10-17T13:32:56;20.80;53.90
43697;DHT22;29301;47.620;19.560;2022-10-17T13:35:42;20.70;54.00
43697;DHT22;29301;47.620;19.560;2022-10-17T13:38:07;20.70;53.80
43697;DHT22;29301;47.620;19.560;2022-10-17T13:40:41;20.70;53.60
43697;DHT22;29301;47.620;19.560;2022-10-17T13:43:15;20.70;53.60
43697;DHT22;29301;47.620;19.560;2022-10-17T13:45:48;20.70;53.70
43697;DHT22;29301;47.620;19.560;2022-10-17T13:48:25;20.70;53.80
43697;DHT22;29301;47.620;19.560;2022-10-17T13:50:54;20.70;53.80
43697;DHT22;29301;47.620;19.560;2022-10-17T13:53:35;20.80;53.60
43697;DHT22;29301;47.620;19.560;2022-10-17T13:56:22;20.70;53.50
43697;DHT22;29301;47.620;19.560;2022-10-17T13:58:57;20.70;54.20
43697;DHT22;29301;47.620;19.560;2022-10-17T14:01:25;20.70;53.80
43697;DHT22;29301;47.620;19.560;2022-10-17T14:03:51;20.70;53.90
43697;DHT22;29301;47.620;19.560;2022-10-17T14:06:22;20.60;53.90
43697;DHT22;29301;47.620;19.560;2022-10-17T14:09:01;20.60;53.80
43697;DHT22;29301;47.620;19.560;2022-10-17T14:11:40;20.60;53.80
43697;DHT22;29301;47.620;19.560;2022-10-17T14:14:19;20.60;54.10
43697;DHT22;29301;47.620;19.560;2022-10-17T14:16:46;20.60;53.80
43697;DHT22;29301;47.620;19.560;2022-10-17T14:21:48;20.50;54.20
43697;DHT22;29301;47.620;19.560;2022-10-17T14:24:33;20.50;54.40
43697;DHT22;29301;47.620;19.560;2022-10-17T14:27:00;20.50;54.40
43697;DHT22;29301;47.620;19.560;2022-10-17T14:29:27;20.50;54.60
43697;DHT22;29301;47.620;19.560;2022-10-17T14:32:06;20.50;54.70
43697;DHT22;29301;47.620;19.560;2022-10-17T14:34:38;20.40;54.80
43697;DHT22;29301;47.620;19.560;2022-10-17T14:37:26;20.30;54.80
43697;DHT22;29301;47.620;19.560;2022-10-17T14:39:58;20.40;55.40
43697;DHT22;29301;47.620;19.560;2022-10-17T14:42:25;20.30;55.50
43697;DHT22;29301;47.620;19.560;2022-10-17T14:44:52;20.30;55.90
43697;DHT22;29301;47.620;19.560;2022-10-17T14:47:21;20.30;55.90
43697;DHT22;29301;47.620;19.560;2022-10-17T14:49:50;20.20;56.00
43697;DHT22;29301;47.620;19.560;2022-10-17T14:54:44;20.10;56.10
43697;DHT22;29301;47.620;19.560;2022-10-17T14:57:17;20.10;56.10
43697;DHT22;29301;47.620;19.560;2022-10-17T14:59:42;20.10;56.40
43697;DHT22;29301;47.620;19.560;2022-10-17T15:02:09;20.00;56.50
43697;DHT22;29301;47.620;19.560;2022-10-17T15:04:35;20.00;56.60
43697;DHT22;29301;47.620;19.560;2022-10-17T15:07:00;19.90;56.80
43697;DHT22;29301;47.620;19.560;2022-10-17T15:09:26;19.90;57.00
43697;DHT22;29301;47.620;19.560;2022-10-17T15:11:55;19.80;57.30
43697;DHT22;29301;47.620;19.560;2022-10-17T15:14:24;19.80;57.60
43697;DHT22;29301;47.620;19.560;2022-10-17T15:16:49;19.70;57.80
43697;DHT22;29301;47.620;19.560;2022-10-17T15:19:15;19.70;58.00
43697;DHT22;29301;47.620;19.560;2022-10-17T15:21:40;19.60;58.50
43697;DHT22;29301;47.620;19.560;2022-10-17T15:24:06;19.50;59.40
43697;DHT22;29301;47.620;19.560;2022-10-17T15:26:33;19.50;60.20
43697;DHT22;29301;47.620;19.560;2022-10-17T15:28:59;19.40;61.20
43697;DHT22;29301;47.620;19.560;2022-10-17T15:31:26;19.20;62.20
43697;DHT22;29301;47.620;19.560;2022-10-17T15:33:52;19.00;63.30
43697;DHT22;29301;47.620;19.560;2022-10-17T15:36:28;18.90;64.30
43697;DHT22;29301;47.620;19.560;2022-10-17T15:38:57;18.80;64.60
43697;DHT22;29301;47.620;19.560;2022-10-17T15:41:28;18.70;64.50
43697;DHT22;29301;47.620;19.560;2022-10-17T15:43:54;18.60;65.50
43697;DHT22;29301;47.620;19.560;2022-10-17T15:46:22;18.40;66.40
43697;DHT22;29301;47.620;19.560;2022-10-17T15:48:50;18.20;67.10
43697;DHT22;29301;47.620;19.560;2022-10-17T15:51:16;18.20;67.60
43697;DHT22;29301;47.620;19.560;2022-10-17T15:53:42;18.10;68.20
43697;DHT22;29301;47.620;19.560;2022-10-17T15:56:19;17.90;68.50
43697;DHT22;29301;47.620;19.560;2022-10-17T15:58:46;17.90;68.60
43697;DHT22;29301;47.620;19.560;2022-10-17T16:01:22;17.80;68.60
43697;DHT22;29301;47.620;19.560;2022-10-17T16:03:49;17.70;68.90
43697;DHT22;29301;47.620;19.560;2022-10-17T16:06:17;17.60;69.30
43697;DHT22;29301;47.620;19.560;2022-10-17T16:08:43;17.40;69.70
43697;DHT22;29301;47.620;19.560;2022-10-17T16:11:35;17.30;70.00
43697;DHT22;29301;47.620;19.560;2022-10-17T16:14:01;17.30;70.10
43697;DHT22;29301;47.620;19.560;2022-10-17T16:16:27;17.20;70.50
43697;DHT22;29301;47.620;19.560;2022-10-17T16:18:53;17.10;70.80
43697;DHT22;29301;47.620;19.560;2022-10-17T16:21:23;17.00;71.00
43697;DHT22;29301;47.620;19.560;2022-10-17T16:23:49;17.10;71.60
43697;DHT22;29301;47.620;19.560;2022-10-17T16:26:15;17.00;71.40
43697;DHT22;29301;47.620;19.560;2022-10-17T16:28:42;16.90;71.30
43697;DHT22;29301;47.620;19.560;2022-10-17T16:31:29;16.80;71.70
43697;DHT22;29301;47.620;19.560;2022-10-17T16:33:57;16.60;72.30
43697;DHT22;29301;47.620;19.560;2022-10-17T16:36:23;16.60;72.80
43697;DHT22;29301;47.620;19.560;2022-10-17T16:38:49;16.60;73.20
43697;DHT22;29301;47.620;19.560;2022-10-17T16:43:48;16.70;73.20
43697;DHT22;29301;47.620;19.560;2022-10-17T16:46:14;16.60;73.30
43697;DHT22;29301;47.620;19.560;2022-10-17T16:48:40;16.60;73.30
43697;DHT22;29301;47.620;19.560;2022-10-17T16:51:07;16.60;73.40
43697;DHT22;29301;47.620;19.560;2022-10-17T16:53:32;16.60;73.50
43697;DHT22;29301;47.620;19.560;2022-10-17T16:56:02;16.60;73.50
43697;DHT22;29301;47.620;19.560;2022-10-17T16:58:28;16.50;73.80
43697;DHT22;29301;47.620;19.560;2022-10-17T17:00:59;16.50;74.90
43697;DHT22;29301;47.620;19.560;2022-10-17T17:03:25;16.30;75.60
43697;DHT22;29301;47.620;19.560;2022-10-17T17:05:50;16.20;75.80
43697;DHT22;29301;47.620;19.560;2022-10-17T17:08:16;16.10;76.10
43697;DHT22;29301;47.620;19.560;2022-10-17T17:10:44;15.90;77.60
43697;DHT22;29301;47.620;19.560;2022-10-17T17:13:10;15.70;78.90
43697;DHT22;29301;47.620;19.560;2022-10-17T17:15:36;15.60;79.50
43697;DHT22;29301;47.620;19.560;2022-10-17T17:18:03;15.70;80.10
43697;DHT22;29301;47.620;19.560;2022-10-17T17:20:29;15.60;80.60
43697;DHT22;29301;47.620;19.560;2022-10-17T17:22:55;15.60;81.10
43697;DHT22;29301;47.620;19.560;2022-10-17T17:25:21;15.60;80.80